Lone Star, Texas
Current Conditions -  °F | °C
As of 8:55 AM on Monday 22 Dec 2014 (Local Time) from KOSA Reporting Station
Overcast Overcast  
Wind Chill: 57°   Ceiling: 3900
Heat Index: 57°   Visibility: 5mi
Dew Point: 53°   Wind: 10mph
Humidity: 85%   Direction: 170°S
Pressure: 29.67"   Gusts: 16mph
Location:  32.94°N, 94.71°W
Report Text: KOSA 221455Z AUTO 17009G14KT 5SM SCT013 SCT022 OVC039 14/12 A2967 RMK AO1 T01400116
Loading
Personal Weather Stations






























Interactive Weather Map New forecast layout! Learn more

10-Day Weather Forecast

Advertisements
Track Severe Weather on mobile